sensor_id;sensor_type;location;lat;lon;timestamp;temperature;humidity
11855;DHT22;5987;53.140;8.904;2023-11-19T00:00:08;6.90;99.90
11855;DHT22;5987;53.140;8.904;2023-11-19T00:03:15;6.90;99.90
11855;DHT22;5987;53.140;8.904;2023-11-19T00:06:19;7.00;99.90
11855;DHT22;5987;53.140;8.904;2023-11-19T00:09:23;7.00;99.90
11855;DHT22;5987;53.140;8.904;2023-11-19T00:12:29;7.00;99.90
11855;DHT22;5987;53.140;8.904;2023-11-19T00:15:32;7.00;99.90
11855;DHT22;5987;53.140;8.904;2023-11-19T00:18:36;7.10;99.90
11855;DHT22;5987;53.140;8.904;2023-11-19T00:21:40;7.10;99.90
11855;DHT22;5987;53.140;8.904;2023-11-19T00:24:44;7.10;99.90
11855;DHT22;5987;53.140;8.904;2023-11-19T00:27:49;7.20;99.90
11855;DHT22;5987;53.140;8.904;2023-11-19T00:30:56;7.20;99.90
11855;DHT22;5987;53.140;8.904;2023-11-19T00:33:59;7.20;99.90
11855;DHT22;5987;53.140;8.904;2023-11-19T00:37:04;7.10;99.90
11855;DHT22;5987;53.140;8.904;2023-11-19T00:40:09;7.20;99.90
11855;DHT22;5987;53.140;8.904;2023-11-19T00:43:15;7.20;99.90
11855;DHT22;5987;53.140;8.904;2023-11-19T00:46:20;7.20;99.90
11855;DHT22;5987;53.140;8.904;2023-11-19T00:49:23;7.30;99.90
11855;DHT22;5987;53.140;8.904;2023-11-19T00:52:27;7.40;99.90
11855;DHT22;5987;53.140;8.904;2023-11-19T00:55:31;7.40;99.90
11855;DHT22;5987;53.140;8.904;2023-11-19T00:58:36;7.30;99.90
11855;DHT22;5987;53.140;8.904;2023-11-19T01:01:40;7.40;99.90
11855;DHT22;5987;53.140;8.904;2023-11-19T01:04:44;7.40;99.90
11855;DHT22;5987;53.140;8.904;2023-11-19T01:07:47;7.40;99.90
11855;DHT22;5987;53.140;8.904;2023-11-19T01:10:52;7.40;99.90
11855;DHT22;5987;53.140;8.904;2023-11-19T01:13:57;7.50;99.90
11855;DHT22;5987;53.140;8.904;2023-11-19T01:17:01;7.50;99.90
11855;DHT22;5987;53.140;8.904;2023-11-19T01:20:07;7.60;99.90
11855;DHT22;5987;53.140;8.904;2023-11-19T01:23:14;7.60;99.90
11855;DHT22;5987;53.140;8.904;2023-11-19T01:26:18;7.60;99.90
11855;DHT22;5987;53.140;8.904;2023-11-19T01:29:23;7.50;99.90
11855;DHT22;5987;53.140;8.904;2023-11-19T01:32:27;7.60;99.90
11855;DHT22;5987;53.140;8.904;2023-11-19T01:35:30;7.70;99.90
11855;DHT22;5987;53.140;8.904;2023-11-19T01:38:34;7.70;99.90
11855;DHT22;5987;53.140;8.904;2023-11-19T01:41:38;7.70;99.90
11855;DHT22;5987;53.140;8.904;2023-11-19T01:44:56;7.80;99.90
11855;DHT22;5987;53.140;8.904;2023-11-19T01:48:02;7.80;99.90
11855;DHT22;5987;53.140;8.904;2023-11-19T01:51:07;7.80;99.90
11855;DHT22;5987;53.140;8.904;2023-11-19T01:54:12;7.90;99.90
11855;DHT22;5987;53.140;8.904;2023-11-19T01:57:17;7.90;99.90
11855;DHT22;5987;53.140;8.904;2023-11-19T02:00:24;8.00;99.90
11855;DHT22;5987;53.140;8.904;2023-11-19T02:03:28;8.00;99.90
11855;DHT22;5987;53.140;8.904;2023-11-19T02:06:33;8.10;99.90
11855;DHT22;5987;53.140;8.904;2023-11-19T02:09:42;8.20;99.90
11855;DHT22;5987;53.140;8.904;2023-11-19T02:12:46;8.20;99.90
11855;DHT22;5987;53.140;8.904;2023-11-19T02:15:52;8.30;99.90
11855;DHT22;5987;53.140;8.904;2023-11-19T02:18:57;8.40;99.90
11855;DHT22;5987;53.140;8.904;2023-11-19T02:22:01;8.50;99.90
11855;DHT22;5987;53.140;8.904;2023-11-19T02:25:07;8.50;99.90
11855;DHT22;5987;53.140;8.904;2023-11-19T02:28:20;8.60;99.90
11855;DHT22;5987;53.140;8.904;2023-11-19T02:31:25;8.70;99.90
11855;DHT22;5987;53.140;8.904;2023-11-19T02:34:29;8.80;99.90
11855;DHT22;5987;53.140;8.904;2023-11-19T02:37:33;8.90;99.90
11855;DHT22;5987;53.140;8.904;2023-11-19T02:40:37;8.90;99.90
11855;DHT22;5987;53.140;8.904;2023-11-19T02:43:42;9.00;99.90
11855;DHT22;5987;53.140;8.904;2023-11-19T02:46:46;9.10;99.90
11855;DHT22;5987;53.140;8.904;2023-11-19T02:49:50;9.20;99.90
11855;DHT22;5987;53.140;8.904;2023-11-19T02:52:55;9.20;99.90
11855;DHT22;5987;53.140;8.904;2023-11-19T02:56:01;9.20;99.90
11855;DHT22;5987;53.140;8.904;2023-11-19T02:59:23;9.40;99.90
11855;DHT22;5987;53.140;8.904;2023-11-19T03:02:30;9.50;99.90
11855;DHT22;5987;53.140;8.904;2023-11-19T03:05:36;9.50;99.90
11855;DHT22;5987;53.140;8.904;2023-11-19T03:08:42;9.60;99.90
11855;DHT22;5987;53.140;8.904;2023-11-19T03:11:46;9.70;99.90
11855;DHT22;5987;53.140;8.904;2023-11-19T03:14:51;9.80;99.90
11855;DHT22;5987;53.140;8.904;2023-11-19T03:17:55;9.90;99.90
11855;DHT22;5987;53.140;8.904;2023-11-19T03:20:58;10.00;99.90
11855;DHT22;5987;53.140;8.904;2023-11-19T03:24:03;10.20;99.90
11855;DHT22;5987;53.140;8.904;2023-11-19T03:27:07;10.20;99.90
11855;DHT22;5987;53.140;8.904;2023-11-19T03:30:12;10.30;99.90
11855;DHT22;5987;53.140;8.904;2023-11-19T03:33:16;10.30;99.90
11855;DHT22;5987;53.140;8.904;2023-11-19T03:36:19;10.30;99.90
11855;DHT22;5987;53.140;8.904;2023-11-19T03:39:23;10.40;99.90
11855;DHT22;5987;53.140;8.904;2023-11-19T03:42:29;10.50;99.90
11855;DHT22;5987;53.140;8.904;2023-11-19T03:45:34;10.50;99.90
11855;DHT22;5987;53.140;8.904;2023-11-19T03:48:38;10.60;99.90
11855;DHT22;5987;53.140;8.904;2023-11-19T03:51:42;10.60;99.90
11855;DHT22;5987;53.140;8.904;2023-11-19T03:54:47;10.70;99.90
11855;DHT22;5987;53.140;8.904;2023-11-19T03:57:51;10.70;99.90
11855;DHT22;5987;53.140;8.904;2023-11-19T04:00:56;10.70;99.90
11855;DHT22;5987;53.140;8.904;2023-11-19T04:03:59;10.80;99.90
11855;DHT22;5987;53.140;8.904;2023-11-19T04:07:04;10.80;99.90
11855;DHT22;5987;53.140;8.904;2023-11-19T04:10:08;10.80;99.90
11855;DHT22;5987;53.140;8.904;2023-11-19T04:13:12;10.90;99.90
11855;DHT22;5987;53.140;8.904;2023-11-19T04:16:18;10.90;99.90
11855;DHT22;5987;53.140;8.904;2023-11-19T04:19:22;10.90;99.90
11855;DHT22;5987;53.140;8.904;2023-11-19T04:22:26;10.90;99.90
11855;DHT22;5987;53.140;8.904;2023-11-19T04:25:30;11.00;99.90
11855;DHT22;5987;53.140;8.904;2023-11-19T04:28:34;11.00;99.90
11855;DHT22;5987;53.140;8.904;2023-11-19T04:31:39;11.00;99.90
11855;DHT22;5987;53.140;8.904;2023-11-19T04:34:43;11.00;99.90
11855;DHT22;5987;53.140;8.904;2023-11-19T04:37:46;11.10;99.90
11855;DHT22;5987;53.140;8.904;2023-11-19T04:40:51;11.10;99.90
11855;DHT22;5987;53.140;8.904;2023-11-19T04:43:55;11.10;99.90
11855;DHT22;5987;53.140;8.904;2023-11-19T04:47:00;11.20;99.90
11855;DHT22;5987;53.140;8.904;2023-11-19T04:50:05;11.20;99.90
11855;DHT22;5987;53.140;8.904;2023-11-19T04:53:12;11.20;99.90
11855;DHT22;5987;53.140;8.904;2023-11-19T04:56:17;11.20;99.90
11855;DHT22;5987;53.140;8.904;2023-11-19T04:59:21;11.30;99.90
11855;DHT22;5987;53.140;8.904;2023-11-19T05:02:26;11.30;99.90
11855;DHT22;5987;53.140;8.904;2023-11-19T05:05:30;11.30;99.90
11855;DHT22;5987;53.140;8.904;2023-11-19T05:08:35;11.30;99.90
11855;DHT22;5987;53.140;8.904;2023-11-19T05:11:39;11.30;99.90
11855;DHT22;5987;53.140;8.904;2023-11-19T05:14:46;11.30;99.90
11855;DHT22;5987;53.140;8.904;2023-11-19T05:17:53;11.30;99.90
11855;DHT22;5987;53.140;8.904;2023-11-19T05:20:57;11.20;99.90
11855;DHT22;5987;53.140;8.904;2023-11-19T05:24:00;11.20;99.90
11855;DHT22;5987;53.140;8.904;2023-11-19T05:27:06;11.30;99.90
11855;DHT22;5987;53.140;8.904;2023-11-19T05:30:10;11.30;99.90
11855;DHT22;5987;53.140;8.904;2023-11-19T05:33:16;11.40;99.90
11855;DHT22;5987;53.140;8.904;2023-11-19T05:36:19;11.40;99.90
11855;DHT22;5987;53.140;8.904;2023-11-19T05:39:23;11.40;99.90
11855;DHT22;5987;53.140;8.904;2023-11-19T05:42:27;11.40;99.90
11855;DHT22;5987;53.140;8.904;2023-11-19T05:45:32;11.50;99.90
11855;DHT22;5987;53.140;8.904;2023-11-19T05:48:37;11.60;99.90
11855;DHT22;5987;53.140;8.904;2023-11-19T05:51:40;11.60;99.90
11855;DHT22;5987;53.140;8.904;2023-11-19T05:54:44;11.60;99.90
11855;DHT22;5987;53.140;8.904;2023-11-19T05:57:50;11.60;99.90
11855;DHT22;5987;53.140;8.904;2023-11-19T06:00:54;11.70;99.90
11855;DHT22;5987;53.140;8.904;2023-11-19T06:04:00;11.70;99.90
11855;DHT22;5987;53.140;8.904;2023-11-19T06:07:04;11.70;99.90
11855;DHT22;5987;53.140;8.904;2023-11-19T06:10:08;11.70;99.90
11855;DHT22;5987;53.140;8.904;2023-11-19T06:13:13;11.70;99.90
11855;DHT22;5987;53.140;8.904;2023-11-19T06:16:17;11.80;99.90
11855;DHT22;5987;53.140;8.904;2023-11-19T06:19:23;11.70;99.90
11855;DHT22;5987;53.140;8.904;2023-11-19T06:22:31;11.70;99.90
11855;DHT22;5987;53.140;8.904;2023-11-19T06:25:35;11.70;99.90
11855;DHT22;5987;53.140;8.904;2023-11-19T06:28:39;11.80;99.90
11855;DHT22;5987;53.140;8.904;2023-11-19T06:31:42;11.70;99.90
11855;DHT22;5987;53.140;8.904;2023-11-19T06:34:47;11.70;99.90
11855;DHT22;5987;53.140;8.904;2023-11-19T06:37:51;11.70;99.90
11855;DHT22;5987;53.140;8.904;2023-11-19T06:40:55;11.70;99.90
11855;DHT22;5987;53.140;8.904;2023-11-19T06:43:58;11.70;99.90
11855;DHT22;5987;53.140;8.904;2023-11-19T06:47:02;11.70;99.90
11855;DHT22;5987;53.140;8.904;2023-11-19T06:50:08;11.70;99.90
11855;DHT22;5987;53.140;8.904;2023-11-19T06:53:14;11.60;99.90
11855;DHT22;5987;53.140;8.904;2023-11-19T06:56:19;11.60;99.90
11855;DHT22;5987;53.140;8.904;2023-11-19T06:59:24;11.60;99.90
11855;DHT22;5987;53.140;8.904;2023-11-19T07:02:27;11.60;99.90
11855;DHT22;5987;53.140;8.904;2023-11-19T07:05:33;11.60;99.90
11855;DHT22;5987;53.140;8.904;2023-11-19T07:08:37;11.70;99.90
11855;DHT22;5987;53.140;8.904;2023-11-19T07:11:42;11.70;99.90
11855;DHT22;5987;53.140;8.904;2023-11-19T07:14:47;11.70;99.90
11855;DHT22;5987;53.140;8.904;2023-11-19T07:17:51;11.70;99.90
11855;DHT22;5987;53.140;8.904;2023-11-19T07:21:00;11.70;99.90
11855;DHT22;5987;53.140;8.904;2023-11-19T07:24:05;11.70;99.90
11855;DHT22;5987;53.140;8.904;2023-11-19T07:27:10;11.70;99.90
11855;DHT22;5987;53.140;8.904;2023-11-19T07:30:14;11.70;99.90
11855;DHT22;5987;53.140;8.904;2023-11-19T07:33:18;11.70;99.90
11855;DHT22;5987;53.140;8.904;2023-11-19T07:36:23;11.80;99.90
11855;DHT22;5987;53.140;8.904;2023-11-19T07:39:27;11.80;99.90
11855;DHT22;5987;53.140;8.904;2023-11-19T07:42:31;11.80;99.90
11855;DHT22;5987;53.140;8.904;2023-11-19T07:45:34;11.80;99.90
11855;DHT22;5987;53.140;8.904;2023-11-19T07:48:38;11.80;99.90
11855;DHT22;5987;53.140;8.904;2023-11-19T07:51:44;11.80;99.90
11855;DHT22;5987;53.140;8.904;2023-11-19T07:54:48;11.80;99.90
11855;DHT22;5987;53.140;8.904;2023-11-19T07:57:51;11.80;99.90
11855;DHT22;5987;53.140;8.904;2023-11-19T08:00:55;11.80;99.90
11855;DHT22;5987;53.140;8.904;2023-11-19T08:03:59;11.80;99.90
11855;DHT22;5987;53.140;8.904;2023-11-19T08:07:05;11.90;99.90
11855;DHT22;5987;53.140;8.904;2023-11-19T08:10:09;11.90;99.90
11855;DHT22;5987;53.140;8.904;2023-11-19T08:13:13;11.90;99.90
11855;DHT22;5987;53.140;8.904;2023-11-19T08:16:17;11.90;99.90
11855;DHT22;5987;53.140;8.904;2023-11-19T08:19:20;11.90;99.90
11855;DHT22;5987;53.140;8.904;2023-11-19T08:22:26;11.90;99.90
11855;DHT22;5987;53.140;8.904;2023-11-19T08:25:29;12.00;99.90
11855;DHT22;5987;53.140;8.904;2023-11-19T08:28:36;12.00;99.90
11855;DHT22;5987;53.140;8.904;2023-11-19T08:31:41;12.00;99.90
11855;DHT22;5987;53.140;8.904;2023-11-19T08:34:45;12.00;99.90
11855;DHT22;5987;53.140;8.904;2023-11-19T08:37:50;12.00;99.90
11855;DHT22;5987;53.140;8.904;2023-11-19T08:40:55;12.00;99.90
11855;DHT22;5987;53.140;8.904;2023-11-19T08:44:02;12.00;99.90
11855;DHT22;5987;53.140;8.904;2023-11-19T08:47:05;12.00;99.90
11855;DHT22;5987;53.140;8.904;2023-11-19T08:50:09;12.00;99.90
11855;DHT22;5987;53.140;8.904;2023-11-19T08:53:15;12.10;99.90
11855;DHT22;5987;53.140;8.904;2023-11-19T08:56:18;12.20;99.90
11855;DHT22;5987;53.140;8.904;2023-11-19T08:59:22;12.30;99.90
11855;DHT22;5987;53.140;8.904;2023-11-19T09:02:26;12.40;99.90
11855;DHT22;5987;53.140;8.904;2023-11-19T09:05:30;12.40;99.90
11855;DHT22;5987;53.140;8.904;2023-11-19T09:08:35;12.40;99.90
11855;DHT22;5987;53.140;8.904;2023-11-19T09:11:39;12.50;99.90
11855;DHT22;5987;53.140;8.904;2023-11-19T09:14:43;12.50;99.90
11855;DHT22;5987;53.140;8.904;2023-11-19T09:17:47;12.60;99.90
11855;DHT22;5987;53.140;8.904;2023-11-19T09:20:51;12.60;99.90
11855;DHT22;5987;53.140;8.904;2023-11-19T09:23:56;12.60;99.90
11855;DHT22;5987;53.140;8.904;2023-11-19T09:27:00;12.80;99.90
11855;DHT22;5987;53.140;8.904;2023-11-19T09:30:05;12.90;99.90
11855;DHT22;5987;53.140;8.904;2023-11-19T09:33:09;12.90;99.90
11855;DHT22;5987;53.140;8.904;2023-11-19T09:36:13;12.90;99.90
11855;DHT22;5987;53.140;8.904;2023-11-19T09:39:21;12.90;99.90
11855;DHT22;5987;53.140;8.904;2023-11-19T09:42:25;12.90;99.90
11855;DHT22;5987;53.140;8.904;2023-11-19T09:45:29;12.80;99.90
11855;DHT22;5987;53.140;8.904;2023-11-19T09:48:41;12.80;99.90
11855;DHT22;5987;53.140;8.904;2023-11-19T09:51:46;12.70;99.90
11855;DHT22;5987;53.140;8.904;2023-11-19T09:54:51;12.70;99.90
11855;DHT22;5987;53.140;8.904;2023-11-19T09:57:55;12.70;99.90
11855;DHT22;5987;53.140;8.904;2023-11-19T10:01:02;12.70;99.90
11855;DHT22;5987;53.140;8.904;2023-11-19T10:04:15;12.80;99.90
11855;DHT22;5987;53.140;8.904;2023-11-19T10:07:20;12.70;99.90
11855;DHT22;5987;53.140;8.904;2023-11-19T10:10:30;12.70;99.90
11855;DHT22;5987;53.140;8.904;2023-11-19T10:13:35;12.80;99.90
11855;DHT22;5987;53.140;8.904;2023-11-19T10:16:41;12.70;99.90
11855;DHT22;5987;53.140;8.904;2023-11-19T10:19:48;12.70;99.90
11855;DHT22;5987;53.140;8.904;2023-11-19T10:22:53;12.70;99.90
11855;DHT22;5987;53.140;8.904;2023-11-19T10:26:04;12.70;99.90
11855;DHT22;5987;53.140;8.904;2023-11-19T10:29:08;12.60;99.90
11855;DHT22;5987;53.140;8.904;2023-11-19T10:32:13;12.60;99.90
11855;DHT22;5987;53.140;8.904;2023-11-19T10:35:28;12.50;99.90
11855;DHT22;5987;53.140;8.904;2023-11-19T10:38:31;12.50;99.90
11855;DHT22;5987;53.140;8.904;2023-11-19T10:41:37;12.50;99.90
11855;DHT22;5987;53.140;8.904;2023-11-19T10:44:42;12.50;99.90
11855;DHT22;5987;53.140;8.904;2023-11-19T10:47:47;12.40;99.90
11855;DHT22;5987;53.140;8.904;2023-11-19T10:50:54;12.40;99.90
11855;DHT22;5987;53.140;8.904;2023-11-19T10:54:01;12.20;99.90
11855;DHT22;5987;53.140;8.904;2023-11-19T10:57:09;12.10;99.90
11855;DHT22;5987;53.140;8.904;2023-11-19T11:00:22;12.10;99.90
11855;DHT22;5987;53.140;8.904;2023-11-19T11:03:31;12.20;99.90
11855;DHT22;5987;53.140;8.904;2023-11-19T11:06:43;12.30;99.90
11855;DHT22;5987;53.140;8.904;2023-11-19T11:09:47;12.30;99.90
11855;DHT22;5987;53.140;8.904;2023-11-19T11:12:55;12.30;99.90
11855;DHT22;5987;53.140;8.904;2023-11-19T11:16:04;12.40;99.90
11855;DHT22;5987;53.140;8.904;2023-11-19T11:19:10;12.50;99.90
11855;DHT22;5987;53.140;8.904;2023-11-19T11:22:16;12.50;99.90
11855;DHT22;5987;53.140;8.904;2023-11-19T11:25:34;12.50;99.90
11855;DHT22;5987;53.140;8.904;2023-11-19T11:28:56;12.60;99.90
11855;DHT22;5987;53.140;8.904;2023-11-19T11:32:16;12.60;99.90
11855;DHT22;5987;53.140;8.904;2023-11-19T11:35:34;12.60;99.90
11855;DHT22;5987;53.140;8.904;2023-11-19T11:38:50;12.70;99.90
11855;DHT22;5987;53.140;8.904;2023-11-19T11:42:34;12.80;99.90
11855;DHT22;5987;53.140;8.904;2023-11-19T11:45:41;12.70;99.90
11855;DHT22;5987;53.140;8.904;2023-11-19T11:48:48;12.80;99.90
11855;DHT22;5987;53.140;8.904;2023-11-19T11:52:01;12.70;99.90
11855;DHT22;5987;53.140;8.904;2023-11-19T11:55:07;12.80;99.90
11855;DHT22;5987;53.140;8.904;2023-11-19T11:58:12;12.80;99.90
11855;DHT22;5987;53.140;8.904;2023-11-19T12:01:18;12.90;99.90
11855;DHT22;5987;53.140;8.904;2023-11-19T12:04:26;12.90;99.90
11855;DHT22;5987;53.140;8.904;2023-11-19T12:07:31;13.00;99.90
11855;DHT22;5987;53.140;8.904;2023-11-19T12:10:45;13.00;99.90
11855;DHT22;5987;53.140;8.904;2023-11-19T12:13:55;13.00;99.90
11855;DHT22;5987;53.140;8.904;2023-11-19T12:17:36;13.00;99.90
11855;DHT22;5987;53.140;8.904;2023-11-19T12:20:42;12.80;99.90
11855;DHT22;5987;53.140;8.904;2023-11-19T12:23:46;12.80;99.90
11855;DHT22;5987;53.140;8.904;2023-11-19T12:26:51;12.80;99.90
11855;DHT22;5987;53.140;8.904;2023-11-19T12:29:56;12.80;99.90
11855;DHT22;5987;53.140;8.904;2023-11-19T12:33:08;12.90;99.90
11855;DHT22;5987;53.140;8.904;2023-11-19T12:36:12;12.90;99.90
11855;DHT22;5987;53.140;8.904;2023-11-19T12:39:17;12.90;99.90
11855;DHT22;5987;53.140;8.904;2023-11-19T12:42:21;12.80;99.90
11855;DHT22;5987;53.140;8.904;2023-11-19T12:45:39;12.80;99.90
11855;DHT22;5987;53.140;8.904;2023-11-19T12:48:45;12.70;99.90
11855;DHT22;5987;53.140;8.904;2023-11-19T12:51:51;12.70;99.90
11855;DHT22;5987;53.140;8.904;2023-11-19T12:54:57;12.70;99.90
11855;DHT22;5987;53.140;8.904;2023-11-19T12:58:01;12.60;99.90
11855;DHT22;5987;53.140;8.904;2023-11-19T13:01:06;12.50;99.90
11855;DHT22;5987;53.140;8.904;2023-11-19T13:04:19;12.50;99.90
11855;DHT22;5987;53.140;8.904;2023-11-19T13:07:23;12.50;99.90
11855;DHT22;5987;53.140;8.904;2023-11-19T13:10:27;12.40;99.90
11855;DHT22;5987;53.140;8.904;2023-11-19T13:13:31;12.30;99.90
11855;DHT22;5987;53.140;8.904;2023-11-19T13:16:37;12.20;99.90
11855;DHT22;5987;53.140;8.904;2023-11-19T13:19:43;12.10;99.90
11855;DHT22;5987;53.140;8.904;2023-11-19T13:23:00;11.90;99.90
11855;DHT22;5987;53.140;8.904;2023-11-19T13:26:06;11.80;99.90
11855;DHT22;5987;53.140;8.904;2023-11-19T13:29:11;11.80;99.90
11855;DHT22;5987;53.140;8.904;2023-11-19T13:32:15;11.60;99.90
11855;DHT22;5987;53.140;8.904;2023-11-19T13:35:20;11.50;99.90
11855;DHT22;5987;53.140;8.904;2023-11-19T13:38:24;11.60;99.90
11855;DHT22;5987;53.140;8.904;2023-11-19T13:41:28;11.70;99.90
11855;DHT22;5987;53.140;8.904;2023-11-19T13:44:32;11.80;99.90
11855;DHT22;5987;53.140;8.904;2023-11-19T13:47:36;11.90;99.90
11855;DHT22;5987;53.140;8.904;2023-11-19T13:50:41;11.90;99.90
11855;DHT22;5987;53.140;8.904;2023-11-19T13:53:46;12.00;99.90
11855;DHT22;5987;53.140;8.904;2023-11-19T13:56:55;11.90;99.90
11855;DHT22;5987;53.140;8.904;2023-11-19T14:00:00;11.90;99.90
11855;DHT22;5987;53.140;8.904;2023-11-19T14:03:08;11.90;99.90
11855;DHT22;5987;53.140;8.904;2023-11-19T14:06:14;11.90;99.90
11855;DHT22;5987;53.140;8.904;2023-11-19T14:09:17;11.90;99.90
11855;DHT22;5987;53.140;8.904;2023-11-19T14:12:21;11.80;99.90
11855;DHT22;5987;53.140;8.904;2023-11-19T14:15:25;11.80;99.90
11855;DHT22;5987;53.140;8.904;2023-11-19T14:18:29;11.80;99.90
11855;DHT22;5987;53.140;8.904;2023-11-19T14:21:35;11.80;99.90
11855;DHT22;5987;53.140;8.904;2023-11-19T14:24:38;11.80;99.90
11855;DHT22;5987;53.140;8.904;2023-11-19T14:27:45;11.80;99.90
11855;DHT22;5987;53.140;8.904;2023-11-19T14:30:49;11.80;99.90
11855;DHT22;5987;53.140;8.904;2023-11-19T14:33:59;11.80;99.90
11855;DHT22;5987;53.140;8.904;2023-11-19T14:37:05;11.80;99.90
11855;DHT22;5987;53.140;8.904;2023-11-19T14:40:09;11.80;99.90
11855;DHT22;5987;53.140;8.904;2023-11-19T14:43:14;11.90;99.90
11855;DHT22;5987;53.140;8.904;2023-11-19T14:46:18;11.90;99.90
11855;DHT22;5987;53.140;8.904;2023-11-19T14:49:22;11.90;99.90
11855;DHT22;5987;53.140;8.904;2023-11-19T14:52:28;11.90;99.90
11855;DHT22;5987;53.140;8.904;2023-11-19T14:55:32;11.80;99.90
11855;DHT22;5987;53.140;8.904;2023-11-19T14:58:36;11.80;99.90
11855;DHT22;5987;53.140;8.904;2023-11-19T15:01:41;11.80;99.90
11855;DHT22;5987;53.140;8.904;2023-11-19T15:04:44;11.70;99.90
11855;DHT22;5987;53.140;8.904;2023-11-19T15:07:50;11.70;99.90
11855;DHT22;5987;53.140;8.904;2023-11-19T15:10:54;11.70;99.90
11855;DHT22;5987;53.140;8.904;2023-11-19T15:13:59;11.60;99.90
11855;DHT22;5987;53.140;8.904;2023-11-19T15:17:03;11.60;99.90
11855;DHT22;5987;53.140;8.904;2023-11-19T15:20:09;11.60;99.90
11855;DHT22;5987;53.140;8.904;2023-11-19T15:23:19;11.60;99.90
11855;DHT22;5987;53.140;8.904;2023-11-19T15:26:23;11.60;99.90
11855;DHT22;5987;53.140;8.904;2023-11-19T15:29:27;11.50;99.90
11855;DHT22;5987;53.140;8.904;2023-11-19T15:32:31;11.60;99.90
11855;DHT22;5987;53.140;8.904;2023-11-19T15:35:35;11.50;99.90
11855;DHT22;5987;53.140;8.904;2023-11-19T15:38:42;11.60;99.90
11855;DHT22;5987;53.140;8.904;2023-11-19T15:41:49;11.50;99.90
11855;DHT22;5987;53.140;8.904;2023-11-19T15:44:53;11.50;99.90
11855;DHT22;5987;53.140;8.904;2023-11-19T15:47:57;11.50;99.90
11855;DHT22;5987;53.140;8.904;2023-11-19T15:51:01;11.40;99.90
11855;DHT22;5987;53.140;8.904;2023-11-19T15:54:06;11.40;99.90
11855;DHT22;5987;53.140;8.904;2023-11-19T15:57:10;11.40;99.90
11855;DHT22;5987;53.140;8.904;2023-11-19T16:00:16;11.50;99.90
11855;DHT22;5987;53.140;8.904;2023-11-19T16:03:22;11.50;99.90
11855;DHT22;5987;53.140;8.904;2023-11-19T16:06:27;11.50;99.90
11855;DHT22;5987;53.140;8.904;2023-11-19T16:09:33;11.50;99.90
11855;DHT22;5987;53.140;8.904;2023-11-19T16:12:40;11.40;99.90
11855;DHT22;5987;53.140;8.904;2023-11-19T16:15:44;11.50;99.90
11855;DHT22;5987;53.140;8.904;2023-11-19T16:18:48;11.50;99.90
11855;DHT22;5987;53.140;8.904;2023-11-19T16:21:52;11.50;99.90
11855;DHT22;5987;53.140;8.904;2023-11-19T16:24:57;11.50;99.90
11855;DHT22;5987;53.140;8.904;2023-11-19T16:28:01;11.50;99.90
11855;DHT22;5987;53.140;8.904;2023-11-19T16:31:06;11.50;99.90
11855;DHT22;5987;53.140;8.904;2023-11-19T16:34:10;11.50;99.90
11855;DHT22;5987;53.140;8.904;2023-11-19T16:37:14;11.50;99.90
11855;DHT22;5987;53.140;8.904;2023-11-19T16:40:20;11.50;99.90
11855;DHT22;5987;53.140;8.904;2023-11-19T16:43:26;11.50;99.90
11855;DHT22;5987;53.140;8.904;2023-11-19T16:46:31;11.50;99.90
11855;DHT22;5987;53.140;8.904;2023-11-19T16:49:37;11.50;99.90
11855;DHT22;5987;53.140;8.904;2023-11-19T16:52:41;11.50;99.90
11855;DHT22;5987;53.140;8.904;2023-11-19T16:55:47;11.50;99.90
11855;DHT22;5987;53.140;8.904;2023-11-19T16:58:52;11.40;99.90
11855;DHT22;5987;53.140;8.904;2023-11-19T17:01:56;11.40;99.90
11855;DHT22;5987;53.140;8.904;2023-11-19T17:05:00;11.40;99.90
11855;DHT22;5987;53.140;8.904;2023-11-19T17:08:04;11.40;99.90
11855;DHT22;5987;53.140;8.904;2023-11-19T17:11:09;11.50;99.90
11855;DHT22;5987;53.140;8.904;2023-11-19T17:14:13;11.50;99.90
11855;DHT22;5987;53.140;8.904;2023-11-19T17:17:17;11.50;99.90
11855;DHT22;5987;53.140;8.904;2023-11-19T17:20:21;11.60;99.90
11855;DHT22;5987;53.140;8.904;2023-11-19T17:23:25;11.60;99.90
11855;DHT22;5987;53.140;8.904;2023-11-19T17:26:30;11.50;99.90
11855;DHT22;5987;53.140;8.904;2023-11-19T17:29:38;11.60;99.90
11855;DHT22;5987;53.140;8.904;2023-11-19T17:32:42;11.60;99.90
11855;DHT22;5987;53.140;8.904;2023-11-19T17:35:46;11.50;99.90
11855;DHT22;5987;53.140;8.904;2023-11-19T17:38:50;11.50;99.90
11855;DHT22;5987;53.140;8.904;2023-11-19T17:41:55;11.60;99.90
11855;DHT22;5987;53.140;8.904;2023-11-19T17:44:59;11.60;99.90
11855;DHT22;5987;53.140;8.904;2023-11-19T17:48:03;11.60;99.90
11855;DHT22;5987;53.140;8.904;2023-11-19T17:51:08;11.60;99.90
11855;DHT22;5987;53.140;8.904;2023-11-19T17:54:12;11.60;99.90
11855;DHT22;5987;53.140;8.904;2023-11-19T17:57:17;11.50;99.90
11855;DHT22;5987;53.140;8.904;2023-11-19T18:00:21;11.50;99.90
11855;DHT22;5987;53.140;8.904;2023-11-19T18:03:25;11.60;99.90
11855;DHT22;5987;53.140;8.904;2023-11-19T18:06:29;11.50;99.90
11855;DHT22;5987;53.140;8.904;2023-11-19T18:09:33;11.40;99.90
11855;DHT22;5987;53.140;8.904;2023-11-19T18:12:39;11.50;99.90
11855;DHT22;5987;53.140;8.904;2023-11-19T18:15:43;11.50;99.90
11855;DHT22;5987;53.140;8.904;2023-11-19T18:18:47;11.50;99.90
11855;DHT22;5987;53.140;8.904;2023-11-19T18:21:51;11.50;99.90
11855;DHT22;5987;53.140;8.904;2023-11-19T18:24:55;11.50;99.90
11855;DHT22;5987;53.140;8.904;2023-11-19T18:28:00;11.50;99.90
11855;DHT22;5987;53.140;8.904;2023-11-19T18:31:04;11.50;99.90
11855;DHT22;5987;53.140;8.904;2023-11-19T18:34:09;11.50;99.90
11855;DHT22;5987;53.140;8.904;2023-11-19T18:37:14;11.50;99.90
11855;DHT22;5987;53.140;8.904;2023-11-19T18:40:19;11.50;99.90
11855;DHT22;5987;53.140;8.904;2023-11-19T18:43:26;11.50;99.90
11855;DHT22;5987;53.140;8.904;2023-11-19T18:46:30;11.50;99.90
11855;DHT22;5987;53.140;8.904;2023-11-19T18:49:34;11.50;99.90
11855;DHT22;5987;53.140;8.904;2023-11-19T18:52:38;11.40;99.90
11855;DHT22;5987;53.140;8.904;2023-11-19T18:55:42;11.40;99.90
11855;DHT22;5987;53.140;8.904;2023-11-19T18:58:48;11.40;99.90
11855;DHT22;5987;53.140;8.904;2023-11-19T19:01:52;11.40;99.90
11855;DHT22;5987;53.140;8.904;2023-11-19T19:04:56;11.50;99.90
11855;DHT22;5987;53.140;8.904;2023-11-19T19:08:00;11.40;99.90
11855;DHT22;5987;53.140;8.904;2023-11-19T19:11:04;11.40;99.90
11855;DHT22;5987;53.140;8.904;2023-11-19T19:14:09;11.50;99.90
11855;DHT22;5987;53.140;8.904;2023-11-19T19:17:13;11.40;99.90
11855;DHT22;5987;53.140;8.904;2023-11-19T19:20:17;11.50;99.90
11855;DHT22;5987;53.140;8.904;2023-11-19T19:23:23;11.50;99.90
11855;DHT22;5987;53.140;8.904;2023-11-19T19:26:26;11.50;99.90
11855;DHT22;5987;53.140;8.904;2023-11-19T19:29:32;11.50;99.90
11855;DHT22;5987;53.140;8.904;2023-11-19T19:32:36;11.50;99.90
11855;DHT22;5987;53.140;8.904;2023-11-19T19:35:42;11.50;99.90
11855;DHT22;5987;53.140;8.904;2023-11-19T19:38:46;11.50;99.90
11855;DHT22;5987;53.140;8.904;2023-11-19T19:41:50;11.50;99.90
11855;DHT22;5987;53.140;8.904;2023-11-19T19:44:55;11.50;99.90
11855;DHT22;5987;53.140;8.904;2023-11-19T19:47:59;11.50;99.90
11855;DHT22;5987;53.140;8.904;2023-11-19T19:51:03;11.50;99.90
11855;DHT22;5987;53.140;8.904;2023-11-19T19:54:09;11.50;99.90